Time;durP1;ratioP1;P1;durP2;ratioP2;P2;SDS_P1;SDS_P2;PMS_P1;PMS_P2;Temp;Humidity;BMP_temperature;BMP_pressure;BME280_temperature;BME280_humidity;BME280_pressure;Samples;Min_cycle;Max_cycle;Signal;HPM_P1;HPM_P2
2023/03/04 00:01:10;;;;;;;26.20;11.30;;;;;;;;;;4986099;28;20043;-78
2023/03/04 00:03:36;;;;;;;27.95;11.10;;;;;;;;;;4978446;28;20112;-77
2023/03/04 00:06:01;;;;;;;27.40;12.02;;;;;;;;;;5002589;28;20117;-77
2023/03/04 00:08:27;;;;;;;33.70;13.52;;;;;;;;;;4993555;28;20129;-78
2023/03/04 00:10:52;;;;;;;28.40;12.07;;;;;;;;;;4992075;28;20034;-78
2023/03/04 00:13:20;;;;;;;30.60;11.77;;;;;;;;;;4986555;28;20038;-77
2023/03/04 00:15:46;;;;;;;27.75;12.00;;;;;;;;;;5010022;28;20038;-77
2023/03/04 00:18:11;;;;;;;34.17;13.02;;;;;;;;;;4993372;28;20030;-78
2023/03/04 00:20:37;;;;;;;30.75;12.23;;;;;;;;;;4977517;28;20101;-77
2023/03/04 00:23:02;;;;;;;30.20;12.50;;;;;;;;;;4999555;28;20078;-77
2023/03/04 00:25:27;;;;;;;25.45;10.88;;;;;;;;;;5002135;28;20512;-78
2023/03/04 00:27:53;;;;;;;27.30;12.07;;;;;;;;;;4977763;28;20133;-78
2023/03/04 00:30:18;;;;;;;31.42;12.77;;;;;;;;;;5008273;28;20034;-78
2023/03/04 00:32:44;;;;;;;29.33;11.77;;;;;;;;;;4987607;28;20494;-77
2023/03/04 00:35:09;;;;;;;29.42;12.10;;;;;;;;;;4996833;28;20073;-78
2023/03/04 00:37:34;;;;;;;27.70;11.32;;;;;;;;;;4991968;28;20030;-78
2023/03/04 00:40:00;;;;;;;37.10;12.50;;;;;;;;;;4975916;28;20040;-77
2023/03/04 00:42:25;;;;;;;22.75;10.95;;;;;;;;;;4993922;28;20037;-78
2023/03/04 00:44:50;;;;;;;30.25;11.18;;;;;;;;;;4986336;28;20038;-77
2023/03/04 00:47:16;;;;;;;29.85;11.27;;;;;;;;;;5010154;28;20114;-76
2023/03/04 00:49:41;;;;;;;30.42;11.68;;;;;;;;;;4993810;28;21775;-77
2023/03/04 00:52:07;;;;;;;26.77;10.77;;;;;;;;;;4996485;28;20038;-77
2023/03/04 00:54:32;;;;;;;26.20;11.18;;;;;;;;;;4994753;28;20041;-77
2023/03/04 00:56:58;;;;;;;28.55;10.93;;;;;;;;;;5000782;28;20486;-78
2023/03/04 00:59:23;;;;;;;26.88;10.15;;;;;;;;;;5001899;28;20157;-78
2023/03/04 01:01:48;;;;;;;23.05;10.77;;;;;;;;;;5001527;28;20030;-77
2023/03/04 01:04:14;;;;;;;24.85;10.15;;;;;;;;;;4980441;28;20037;-77
2023/03/04 01:06:39;;;;;;;27.35;10.23;;;;;;;;;;4992457;28;20053;-77
2023/03/04 01:09:04;;;;;;;25.58;9.75;;;;;;;;;;5006556;28;20580;-77
2023/03/04 01:11:30;;;;;;;25.73;10.45;;;;;;;;;;5006708;28;20030;-77
2023/03/04 01:13:55;;;;;;;26.90;10.43;;;;;;;;;;4996253;28;20022;-78
2023/03/04 01:16:21;;;;;;;26.88;10.23;;;;;;;;;;4991672;28;20042;-77
2023/03/04 01:18:46;;;;;;;25.65;10.27;;;;;;;;;;4994100;28;20038;-77
2023/03/04 01:21:12;;;;;;;23.00;8.77;;;;;;;;;;5000016;28;20045;-78
2023/03/04 01:23:37;;;;;;;22.85;8.48;;;;;;;;;;4993721;28;20041;-77
2023/03/04 01:26:03;;;;;;;28.17;9.88;;;;;;;;;;5008035;28;20117;-78
2023/03/04 01:28:29;;;;;;;24.50;9.10;;;;;;;;;;4993766;28;20034;-78
2023/03/04 01:30:54;;;;;;;21.70;8.82;;;;;;;;;;4991406;28;20445;-78
2023/03/04 01:33:19;;;;;;;25.63;8.82;;;;;;;;;;4975127;28;20482;-78
2023/03/04 01:35:45;;;;;;;22.77;8.45;;;;;;;;;;4992416;28;20402;-77
2023/03/04 01:38:11;;;;;;;21.52;8.50;;;;;;;;;;4993899;28;20034;-76
2023/03/04 01:40:37;;;;;;;24.25;9.48;;;;;;;;;;4977334;28;20030;-76
2023/03/04 01:43:02;;;;;;;23.17;8.63;;;;;;;;;;4990156;28;20045;-77
2023/03/04 01:45:28;;;;;;;24.42;8.43;;;;;;;;;;4984484;28;22225;-77
2023/03/04 01:47:53;;;;;;;25.15;8.40;;;;;;;;;;4979244;28;20068;-77
2023/03/04 01:50:24;;;;;;;19.10;7.18;;;;;;;;;;5001233;28;20072;-77
2023/03/04 01:52:50;;;;;;;21.67;7.30;;;;;;;;;;4993089;28;20038;-78
2023/03/04 01:55:18;;;;;;;22.20;7.30;;;;;;;;;;4983738;28;20453;-78
2023/03/04 01:57:45;;;;;;;22.13;7.05;;;;;;;;;;5009651;28;20172;-78
2023/03/04 02:00:18;;;;;;;22.35;7.28;;;;;;;;;;4994881;28;20437;-78
2023/03/04 02:02:44;;;;;;;15.20;6.57;;;;;;;;;;4991087;28;20108;-78
2023/03/04 02:05:10;;;;;;;20.88;6.45;;;;;;;;;;4988386;28;20167;-78
2023/03/04 02:07:35;;;;;;;23.77;7.35;;;;;;;;;;4975661;28;20086;-78
2023/03/04 02:10:01;;;;;;;20.20;7.00;;;;;;;;;;5000871;28;20045;-77
2023/03/04 02:12:26;;;;;;;16.77;6.15;;;;;;;;;;4989321;28;20030;-78
2023/03/04 02:14:52;;;;;;;25.33;6.97;;;;;;;;;;4981535;28;20405;-77
2023/03/04 02:17:24;;;;;;;14.98;6.22;;;;;;;;;;4984109;28;20061;-78
2023/03/04 02:19:55;;;;;;;15.10;5.88;;;;;;;;;;4991285;28;20560;-78
2023/03/04 02:22:21;;;;;;;19.77;6.78;;;;;;;;;;4993642;28;20110;-77
2023/03/04 02:24:57;;;;;;;18.45;6.43;;;;;;;;;;4975634;28;20117;-77
2023/03/04 02:27:22;;;;;;;20.30;6.00;;;;;;;;;;4993775;28;20113;-78
2023/03/04 02:29:48;;;;;;;17.42;5.40;;;;;;;;;;4976504;28;20125;-78
2023/03/04 02:32:13;;;;;;;15.93;5.60;;;;;;;;;;5006235;28;20401;-77
2023/03/04 02:34:45;;;;;;;16.80;5.47;;;;;;;;;;4991659;28;20039;-78
2023/03/04 02:37:11;;;;;;;19.33;6.78;;;;;;;;;;4981063;28;20113;-78
2023/03/04 02:39:41;;;;;;;23.92;6.90;;;;;;;;;;4988319;28;20121;-78
2023/03/04 02:42:07;;;;;;;18.38;5.28;;;;;;;;;;4980479;28;20033;-78
2023/03/04 02:44:34;;;;;;;22.30;5.88;;;;;;;;;;5011766;28;20049;-78
2023/03/04 02:47:00;;;;;;;;;;;;;;;;;;4997712;28;20037;-77
2023/03/04 02:49:27;;;;;;;16.40;5.78;;;;;;;;;;5009676;28;19921;-78
2023/03/04 02:52:02;;;;;;;16.80;5.85;;;;;;;;;;4997460;28;20034;-78
2023/03/04 02:54:27;;;;;;;16.50;5.28;;;;;;;;;;5010818;28;20457;-78
2023/03/04 02:56:57;;;;;;;20.65;6.22;;;;;;;;;;5004012;28;20101;-79
2023/03/04 02:59:23;;;;;;;14.35;5.55;;;;;;;;;;4994475;28;20670;-79
2023/03/04 03:01:48;;;;;;;15.88;5.28;;;;;;;;;;4989103;28;20041;-78
2023/03/04 03:04:14;;;;;;;20.13;5.70;;;;;;;;;;5011619;28;20038;-76
2023/03/04 03:06:40;;;;;;;14.95;5.47;;;;;;;;;;4993119;28;20050;-77
2023/03/04 03:09:05;;;;;;;14.48;4.93;;;;;;;;;;4994521;28;20069;-78
2023/03/04 03:11:31;;;;;;;13.15;4.40;;;;;;;;;;4993443;28;20030;-78
2023/03/04 03:13:57;;;;;;;14.88;4.63;;;;;;;;;;5011956;28;20478;-78
2023/03/04 03:16:22;;;;;;;15.13;5.22;;;;;;;;;;4980675;28;20052;-75
2023/03/04 03:18:48;;;;;;;18.30;4.70;;;;;;;;;;4995188;28;20038;-77
2023/03/04 03:21:13;;;;;;;23.42;5.18;;;;;;;;;;4995692;28;20490;-77
2023/03/04 03:23:39;;;;;;;17.35;5.10;;;;;;;;;;4996089;28;20034;-76
2023/03/04 03:26:05;;;;;;;15.25;4.57;;;;;;;;;;4994527;28;20145;-76
2023/03/04 03:28:30;;;;;;;15.85;4.60;;;;;;;;;;5010373;28;20034;-76
2023/03/04 03:30:56;;;;;;;14.88;5.78;;;;;;;;;;5010656;28;20394;-77
2023/03/04 03:33:21;;;;;;;16.90;5.25;;;;;;;;;;4993888;28;20080;-76
2023/03/04 03:35:47;;;;;;;20.85;5.88;;;;;;;;;;4977406;28;20086;-75
2023/03/04 03:38:12;;;;;;;11.82;4.55;;;;;;;;;;5010488;28;20045;-76
2023/03/04 03:40:38;;;;;;;13.98;4.32;;;;;;;;;;4975137;28;20461;-76
2023/03/04 03:43:03;;;;;;;14.65;4.63;;;;;;;;;;4987355;28;20034;-76
2023/03/04 03:45:29;;;;;;;13.52;4.28;;;;;;;;;;5009260;28;20386;-76
2023/03/04 03:47:54;;;;;;;16.30;5.15;;;;;;;;;;4995111;28;20037;-77
2023/03/04 03:50:19;;;;;;;15.13;4.70;;;;;;;;;;4986484;28;20402;-76
2023/03/04 03:52:45;;;;;;;17.77;5.20;;;;;;;;;;4996765;28;20040;-76
2023/03/04 03:55:10;;;;;;;15.27;4.97;;;;;;;;;;5002720;28;20046;-75
2023/03/04 03:57:35;;;;;;;22.27;5.00;;;;;;;;;;4996316;28;20048;-76
2023/03/04 04:00:01;;;;;;;13.05;4.38;;;;;;;;;;4987099;28;20045;-76
2023/03/04 04:02:27;;;;;;;12.93;4.43;;;;;;;;;;4990402;28;20154;-76
2023/03/04 04:04:52;;;;;;;12.90;4.10;;;;;;;;;;4993035;28;20041;-76
2023/03/04 04:07:17;;;;;;;16.08;4.38;;;;;;;;;;4995708;28;20482;-76
2023/03/04 04:09:43;;;;;;;12.20;4.13;;;;;;;;;;4994033;28;20038;-75
2023/03/04 04:12:12;;;;;;;12.63;4.32;;;;;;;;;;4981096;28;20022;-76
2023/03/04 04:14:37;;;;;;;14.30;4.22;;;;;;;;;;4981948;28;20747;-76
2023/03/04 04:17:03;;;;;;;13.50;4.07;;;;;;;;;;4977462;28;20034;-76
2023/03/04 04:19:28;;;;;;;13.52;3.90;;;;;;;;;;4994781;28;20037;-78
2023/03/04 04:21:54;;;;;;;10.60;3.85;;;;;;;;;;4992753;28;20606;-79
2023/03/04 04:24:19;;;;;;;12.65;3.80;;;;;;;;;;4994183;28;20143;-77
2023/03/04 04:26:44;;;;;;;15.75;3.58;;;;;;;;;;4986835;28;20038;-77
2023/03/04 04:29:13;;;;;;;12.52;3.15;;;;;;;;;;4981119;28;20124;-77
2023/03/04 04:31:38;;;;;;;8.75;3.35;;;;;;;;;;4994082;28;20060;-77
2023/03/04 04:34:04;;;;;;;10.32;2.97;;;;;;;;;;5009958;28;20046;-78
2023/03/04 04:36:29;;;;;;;15.00;3.83;;;;;;;;;;5008313;28;20196;-78
2023/03/04 04:38:54;;;;;;;9.75;3.40;;;;;;;;;;4993978;28;20037;-78
2023/03/04 04:41:26;;;;;;;11.35;3.33;;;;;;;;;;4976545;28;20030;-77
2023/03/04 04:43:51;;;;;;;14.65;3.50;;;;;;;;;;4996403;28;20547;-78
2023/03/04 04:46:17;;;;;;;10.93;3.53;;;;;;;;;;4992160;28;20031;-78
2023/03/04 04:48:42;;;;;;;10.52;3.25;;;;;;;;;;5002515;28;21029;-77
2023/03/04 04:51:08;;;;;;;12.32;3.17;;;;;;;;;;4993730;28;20037;-78
2023/03/04 04:53:34;;;;;;;10.20;3.03;;;;;;;;;;5002174;28;20653;-78
2023/03/04 04:55:59;;;;;;;13.18;3.05;;;;;;;;;;4992748;28;21163;-78
2023/03/04 04:58:25;;;;;;;9.63;3.22;;;;;;;;;;4974929;28;20061;-78
2023/03/04 05:00:50;;;;;;;11.40;2.85;;;;;;;;;;4999374;28;20405;-77
2023/03/04 05:03:15;;;;;;;10.35;2.90;;;;;;;;;;4991836;28;20045;-77
2023/03/04 05:05:41;;;;;;;13.10;3.30;;;;;;;;;;4976846;28;20042;-77
2023/03/04 05:08:06;;;;;;;14.45;3.03;;;;;;;;;;5008173;28;20402;-78
2023/03/04 05:10:32;;;;;;;10.85;3.17;;;;;;;;;;4993351;28;20095;-78
2023/03/04 05:12:57;;;;;;;16.92;3.00;;;;;;;;;;4995669;28;20034;-78
2023/03/04 05:15:22;;;;;;;13.27;3.05;;;;;;;;;;4977076;28;20836;-78
2023/03/04 05:17:48;;;;;;;14.52;3.03;;;;;;;;;;4992455;28;20041;-77
2023/03/04 05:20:13;;;;;;;11.65;2.85;;;;;;;;;;4984467;28;20065;-78
2023/03/04 05:22:38;;;;;;;11.82;2.58;;;;;;;;;;5001315;28;20074;-78
2023/03/04 05:25:05;;;;;;;9.30;2.60;;;;;;;;;;5008589;28;20042;-77
2023/03/04 05:27:31;;;;;;;13.02;3.08;;;;;;;;;;5007331;28;20035;-78
2023/03/04 05:29:59;;;;;;;8.55;2.42;;;;;;;;;;4995618;28;20030;-78
2023/03/04 05:32:24;;;;;;;7.50;2.53;;;;;;;;;;4982640;28;20034;-78
2023/03/04 05:34:50;;;;;;;10.00;2.10;;;;;;;;;;4980583;28;20546;-77
2023/03/04 05:37:15;;;;;;;10.60;2.25;;;;;;;;;;4984362;28;20502;-78
2023/03/04 05:39:40;;;;;;;8.60;2.28;;;;;;;;;;5007822;28;20049;-77
2023/03/04 05:42:06;;;;;;;7.20;2.13;;;;;;;;;;4982894;28;20034;-78
2023/03/04 05:44:31;;;;;;;12.13;2.10;;;;;;;;;;5001290;28;20084;-78
2023/03/04 05:46:56;;;;;;;13.10;2.85;;;;;;;;;;4991623;28;20030;-78
2023/03/04 05:49:22;;;;;;;9.38;2.47;;;;;;;;;;4996414;28;20121;-78
2023/03/04 05:51:47;;;;;;;9.40;1.92;;;;;;;;;;4984601;28;20050;-77
2023/03/04 05:54:12;;;;;;;8.68;2.28;;;;;;;;;;4994708;28;20038;-77
2023/03/04 05:56:38;;;;;;;8.23;2.13;;;;;;;;;;5001500;28;20045;-76
2023/03/04 05:59:03;;;;;;;15.60;2.22;;;;;;;;;;5009455;28;20523;-77
2023/03/04 06:01:30;;;;;;;7.82;2.35;;;;;;;;;;5000790;28;20100;-78
2023/03/04 06:03:55;;;;;;;8.10;2.25;;;;;;;;;;5009362;28;20469;-78
2023/03/04 06:06:20;;;;;;;10.00;2.38;;;;;;;;;;5006099;28;20096;-77
2023/03/04 06:08:46;;;;;;;8.18;2.25;;;;;;;;;;4990924;28;20045;-77
2023/03/04 06:11:11;;;;;;;10.20;2.53;;;;;;;;;;4999863;28;20034;-78
2023/03/04 06:13:37;;;;;;;7.20;2.15;;;;;;;;;;4992231;28;20034;-78
2023/03/04 06:16:02;;;;;;;10.85;2.45;;;;;;;;;;5000308;28;20030;-78
2023/03/04 06:18:28;;;;;;;10.43;2.33;;;;;;;;;;4996027;28;20038;-79
2023/03/04 06:20:58;;;;;;;7.55;2.60;;;;;;;;;;4984218;28;20045;-78
2023/03/04 06:23:24;;;;;;;8.98;2.35;;;;;;;;;;4991838;28;20030;-78
2023/03/04 06:25:51;;;;;;;9.05;2.42;;;;;;;;;;4991792;28;20062;-77
2023/03/04 06:28:17;;;;;;;11.50;2.72;;;;;;;;;;4983497;28;20061;-77
2023/03/04 06:30:42;;;;;;;11.13;3.00;;;;;;;;;;4992727;28;20061;-78
2023/03/04 06:33:07;;;;;;;8.38;2.33;;;;;;;;;;4999502;28;20042;-78
2023/03/04 06:35:33;;;;;;;7.43;2.28;;;;;;;;;;4974120;28;20026;-78
2023/03/04 06:37:58;;;;;;;7.53;2.30;;;;;;;;;;4993659;28;20698;-78
2023/03/04 06:40:24;;;;;;;10.70;2.72;;;;;;;;;;4994752;28;20045;-79
2023/03/04 06:42:49;;;;;;;9.93;2.20;;;;;;;;;;4992245;28;20150;-78
2023/03/04 06:45:14;;;;;;;7.88;2.22;;;;;;;;;;4997028;28;20457;-78
2023/03/04 06:47:40;;;;;;;7.05;2.33;;;;;;;;;;4992938;28;20038;-77
2023/03/04 06:50:06;;;;;;;13.70;2.75;;;;;;;;;;4973904;28;20034;-78
2023/03/04 06:52:31;;;;;;;12.23;3.35;;;;;;;;;;4990176;28;20031;-77
2023/03/04 06:54:56;;;;;;;9.90;2.90;;;;;;;;;;4993531;28;20538;-79
2023/03/04 06:57:22;;;;;;;13.40;2.83;;;;;;;;;;4984127;28;20038;-77
2023/03/04 06:59:47;;;;;;;12.82;2.50;;;;;;;;;;5008164;28;20039;-78
2023/03/04 07:02:13;;;;;;;14.07;3.00;;;;;;;;;;4991585;28;20125;-78
2023/03/04 07:04:38;;;;;;;7.00;2.60;;;;;;;;;;4997778;28;20040;-78
2023/03/04 07:07:04;;;;;;;8.57;3.10;;;;;;;;;;5007312;28;20034;-79
2023/03/04 07:09:29;;;;;;;11.45;2.70;;;;;;;;;;4992311;28;20517;-79
2023/03/04 07:11:55;;;;;;;11.40;3.13;;;;;;;;;;4988072;28;20413;-79
2023/03/04 07:14:20;;;;;;;7.75;2.42;;;;;;;;;;4997785;28;20045;-78
2023/03/04 07:16:46;;;;;;;8.10;2.53;;;;;;;;;;4976597;28;20038;-79
2023/03/04 07:19:11;;;;;;;10.18;3.25;;;;;;;;;;4984628;28;20132;-83
2023/03/04 07:21:37;;;;;;;10.95;2.85;;;;;;;;;;4983513;28;20041;-83
2023/03/04 07:24:02;;;;;;;8.05;2.70;;;;;;;;;;4987241;28;20038;-83
2023/03/04 07:26:30;;;;;;;7.85;2.70;;;;;;;;;;4992193;28;20038;-82
2023/03/04 07:28:58;;;;;;;7.70;2.70;;;;;;;;;;5009060;28;20536;-84
2023/03/04 07:31:27;;;;;;;7.78;2.35;;;;;;;;;;5002837;28;20030;-84
2023/03/04 07:33:55;;;;;;;10.20;2.75;;;;;;;;;;4987214;28;20065;-85
2023/03/04 07:36:21;;;;;;;11.50;2.83;;;;;;;;;;4994738;28;20045;-84
2023/03/04 07:38:48;;;;;;;7.28;2.50;;;;;;;;;;4977121;28;20030;-85
2023/03/04 07:41:14;;;;;;;9.52;3.00;;;;;;;;;;4994237;28;20092;-83
2023/03/04 07:43:39;;;;;;;9.82;2.90;;;;;;;;;;4989521;28;20038;-84
2023/03/04 07:46:05;;;;;;;8.32;2.40;;;;;;;;;;4985723;28;20030;-84
2023/03/04 07:48:30;;;;;;;7.15;2.55;;;;;;;;;;4995031;28;20450;-83
2023/03/04 07:51:11;;;;;;;6.95;2.90;;;;;;;;;;4985952;28;20053;-83
2023/03/04 07:53:38;;;;;;;8.20;2.60;;;;;;;;;;4975918;28;20042;-85
2023/03/04 07:56:05;;;;;;;8.68;2.67;;;;;;;;;;4978095;28;20037;-86
2023/03/04 07:58:30;;;;;;;6.93;2.00;;;;;;;;;;4995701;28;20490;-86
2023/03/04 08:00:56;;;;;;;8.32;2.35;;;;;;;;;;5010389;28;20033;-87
2023/03/04 08:03:21;;;;;;;6.38;2.75;;;;;;;;;;4981889;28;20073;-87
2023/03/04 08:05:47;;;;;;;5.25;2.20;;;;;;;;;;5002823;28;20579;-85
2023/03/04 08:08:12;;;;;;;9.27;2.60;;;;;;;;;;4981113;28;20145;-86
2023/03/04 08:10:38;;;;;;;7.75;2.20;;;;;;;;;;4986740;28;20039;-80
2023/03/04 08:13:05;;;;;;;6.97;2.58;;;;;;;;;;4989655;28;20404;-78
2023/03/04 08:15:32;;;;;;;10.40;2.33;;;;;;;;;;4992726;28;20153;-79
2023/03/04 08:17:57;;;;;;;7.82;2.38;;;;;;;;;;4984402;28;20069;-79
2023/03/04 08:20:23;;;;;;;4.85;1.90;;;;;;;;;;4993725;28;20025;-79
2023/03/04 08:22:48;;;;;;;8.43;2.42;;;;;;;;;;4995594;28;20038;-79
2023/03/04 08:25:14;;;;;;;7.43;2.88;;;;;;;;;;4978809;28;20042;-78
2023/03/04 08:27:39;;;;;;;6.68;2.30;;;;;;;;;;4979623;28;20042;-80
2023/03/04 08:30:05;;;;;;;6.65;2.17;;;;;;;;;;5001406;28;20034;-80
2023/03/04 08:32:30;;;;;;;6.20;2.22;;;;;;;;;;4977069;28;20035;-79
2023/03/04 08:34:56;;;;;;;9.13;2.45;;;;;;;;;;4993074;28;20037;-81
2023/03/04 08:37:22;;;;;;;6.22;2.10;;;;;;;;;;5011889;28;20026;-79
2023/03/04 08:39:47;;;;;;;7.72;2.13;;;;;;;;;;5000665;28;20034;-81
2023/03/04 08:42:12;;;;;;;6.30;2.25;;;;;;;;;;4992469;28;20445;-82
2023/03/04 08:44:38;;;;;;;7.35;2.03;;;;;;;;;;5001704;28;20466;-81
2023/03/04 08:47:03;;;;;;;9.48;1.80;;;;;;;;;;5001334;28;20038;-80
2023/03/04 08:49:29;;;;;;;4.88;1.92;;;;;;;;;;5012433;28;20126;-79
2023/03/04 08:51:54;;;;;;;4.57;1.77;;;;;;;;;;4985305;28;20571;-78
2023/03/04 08:54:40;;;;;;;7.80;2.08;;;;;;;;;;4992983;28;20038;-77
2023/03/04 08:57:06;;;;;;;6.60;2.08;;;;;;;;;;4974559;28;20034;-77
2023/03/04 08:59:32;;;;;;;6.63;2.05;;;;;;;;;;4964386;28;20062;-78
2023/03/04 09:01:57;;;;;;;6.28;1.80;;;;;;;;;;4969985;28;20117;-78
2023/03/04 09:04:23;;;;;;;7.68;1.75;;;;;;;;;;4971295;28;20206;-79
2023/03/04 09:06:48;;;;;;;7.05;2.00;;;;;;;;;;4966688;28;20503;-78
2023/03/04 09:09:14;;;;;;;7.93;2.00;;;;;;;;;;4969761;28;20113;-79
2023/03/04 09:11:39;;;;;;;7.57;2.10;;;;;;;;;;4964024;28;20098;-78
2023/03/04 09:14:05;;;;;;;6.30;1.85;;;;;;;;;;4963827;28;20049;-79
2023/03/04 09:16:30;;;;;;;6.22;1.92;;;;;;;;;;4958315;28;20117;-79
2023/03/04 09:18:56;;;;;;;4.82;1.92;;;;;;;;;;4959157;28;20048;-79
2023/03/04 09:21:21;;;;;;;4.82;2.00;;;;;;;;;;4953070;28;20069;-79
2023/03/04 09:23:46;;;;;;;7.45;1.55;;;;;;;;;;4969294;28;20097;-79
2023/03/04 09:26:23;;;;;;;5.07;2.17;;;;;;;;;;4962428;28;20038;-79
2023/03/04 09:28:50;;;;;;;5.47;1.98;;;;;;;;;;4962549;28;20074;-79
2023/03/04 09:31:15;;;;;;;5.18;1.70;;;;;;;;;;4946678;28;20035;-79
2023/03/04 09:33:42;;;;;;;8.10;1.80;;;;;;;;;;4978263;28;20049;-79
2023/03/04 09:36:09;;;;;;;7.50;2.22;;;;;;;;;;4992622;28;20405;-81
2023/03/04 09:38:39;;;;;;;5.85;1.80;;;;;;;;;;5006898;28;20042;-79
2023/03/04 09:41:26;;;;;;;6.95;2.00;;;;;;;;;;4989665;28;20116;-82
2023/03/04 09:43:52;;;;;;;8.32;1.45;;;;;;;;;;4984502;28;20743;-81
2023/03/04 09:46:41;;;;;;;5.75;1.27;;;;;;;;;;4979958;28;20485;-81
2023/03/04 09:49:10;;;;;;;8.45;1.63;;;;;;;;;;4993949;28;20042;-78
2023/03/04 09:52:12;;;;;;;5.82;1.50;;;;;;;;;;4990455;28;20034;-81
2023/03/04 09:55:00;;;;;;;5.05;1.30;;;;;;;;;;5008274;28;20524;-81
2023/03/04 09:57:34;;;;;;;;;;;;;;;;;;4989857;28;20056;-88
2023/03/04 10:00:06;;;;;;;7.63;1.33;;;;;;;;;;5008456;28;20453;-85
2023/03/04 10:03:00;;;;;;;6.13;1.13;;;;;;;;;;4997170;28;20041;-83
2023/03/04 10:05:26;;;;;;;6.53;1.30;;;;;;;;;;4990821;28;20026;-82
2023/03/04 10:07:57;;;;;;;7.25;1.35;;;;;;;;;;4992167;28;20047;-82
2023/03/04 10:10:37;;;;;;;2.92;0.80;;;;;;;;;;4975023;28;20038;-81
2023/03/04 10:13:03;;;;;;;8.18;1.17;;;;;;;;;;4974821;28;20034;-82
2023/03/04 10:15:40;;;;;;;5.97;1.20;;;;;;;;;;5007473;28;20040;-81
2023/03/04 10:18:35;;;;;;;7.35;1.40;;;;;;;;;;5006506;28;20097;-81
2023/03/04 10:21:13;;;;;;;8.10;1.33;;;;;;;;;;4994735;28;20125;-81
2023/03/04 10:23:40;;;;;;;6.43;1.25;;;;;;;;;;4994159;28;20088;-81
2023/03/04 10:26:14;;;;;;;8.93;1.38;;;;;;;;;;4982492;28;20505;-81
2023/03/04 10:28:40;;;;;;;6.95;1.35;;;;;;;;;;4996378;28;20924;-81
2023/03/04 10:31:14;;;;;;;6.22;1.13;;;;;;;;;;5007517;28;20030;-81
2023/03/04 10:33:40;;;;;;;4.82;1.27;;;;;;;;;;4988555;28;20504;-80
2023/03/04 10:36:24;;;;;;;8.70;1.50;;;;;;;;;;4992222;28;20037;-81
2023/03/04 10:38:53;;;;;;;6.60;1.13;;;;;;;;;;5007805;28;20042;-81
2023/03/04 10:41:25;;;;;;;6.95;1.02;;;;;;;;;;4988648;28;20041;-81
2023/03/04 10:44:13;;;;;;;8.25;1.58;;;;;;;;;;4976580;28;20089;-80
2023/03/04 10:47:03;;;;;;;4.63;1.10;;;;;;;;;;5007696;28;20410;-80
2023/03/04 10:49:28;;;;;;;9.70;1.27;;;;;;;;;;4916223;29;20039;-81
2023/03/04 10:52:15;;;;;;;7.97;1.92;;;;;;;;;;4906141;29;20046;-81
2023/03/04 10:54:46;;;;;;;8.75;1.50;;;;;;;;;;4906076;29;20040;-80
2023/03/04 10:57:18;;;;;;;9.77;1.40;;;;;;;;;;4916603;29;20110;-80
2023/03/04 10:59:52;;;;;;;10.13;1.92;;;;;;;;;;4922008;29;20804;-81
2023/03/04 11:02:21;;;;;;;8.80;1.35;;;;;;;;;;4908575;29;20508;-80
2023/03/04 11:05:10;;;;;;;10.48;1.38;;;;;;;;;;4910764;29;20204;-81
2023/03/04 11:07:39;;;;;;;9.45;2.05;;;;;;;;;;4918766;29;20052;-80
2023/03/04 11:10:25;;;;;;;9.13;1.48;;;;;;;;;;4909492;29;20036;-80
2023/03/04 11:12:55;;;;;;;10.23;1.30;;;;;;;;;;4918789;29;20528;-80
2023/03/04 11:15:26;;;;;;;9.05;1.42;;;;;;;;;;4917687;29;20508;-81
2023/03/04 11:18:02;;;;;;;10.23;1.40;;;;;;;;;;4889494;29;20039;-81
2023/03/04 11:20:30;;;;;;;8.48;1.73;;;;;;;;;;4920503;29;20063;-80
2023/03/04 11:23:00;;;;;;;9.30;1.70;;;;;;;;;;4920460;29;20039;-81
2023/03/04 11:25:33;;;;;;;10.45;1.70;;;;;;;;;;4921882;28;20068;-80
2023/03/04 11:28:02;;;;;;;6.07;1.42;;;;;;;;;;4991655;28;20041;-81
2023/03/04 11:30:36;;;;;;;9.82;1.50;;;;;;;;;;4977482;28;20088;-80
2023/03/04 11:33:15;;;;;;;6.93;1.42;;;;;;;;;;5010877;28;20397;-80
2023/03/04 11:35:49;;;;;;;10.07;1.60;;;;;;;;;;4978335;28;20501;-80
2023/03/04 11:38:20;;;;;;;11.02;1.73;;;;;;;;;;5008695;28;20034;-80
2023/03/04 11:40:58;;;;;;;7.72;1.73;;;;;;;;;;4996131;28;20481;-80
2023/03/04 11:43:29;;;;;;;9.18;1.77;;;;;;;;;;4994035;28;20482;-81
2023/03/04 11:46:05;;;;;;;8.20;1.98;;;;;;;;;;4995185;28;20088;-81
2023/03/04 11:49:02;;;;;;;9.00;1.80;;;;;;;;;;4997168;28;20037;-80
2023/03/04 11:51:46;;;;;;;6.88;1.52;;;;;;;;;;4995824;28;20872;-80
2023/03/04 11:54:34;;;;;;;7.50;1.55;;;;;;;;;;5009532;28;20565;-80
2023/03/04 11:57:12;;;;;;;12.32;2.05;;;;;;;;;;4992627;28;20042;-80
2023/03/04 12:00:01;;;;;;;12.82;1.67;;;;;;;;;;5003556;28;20034;-80
2023/03/04 12:02:58;;;;;;;11.68;1.75;;;;;;;;;;4993092;28;20035;-80
2023/03/04 12:05:36;;;;;;;7.68;1.90;;;;;;;;;;4979285;28;20044;-80
2023/03/04 12:08:11;;;;;;;12.88;2.05;;;;;;;;;;5010151;28;20470;-80
2023/03/04 12:10:55;;;;;;;14.35;1.88;;;;;;;;;;4997569;28;20136;-80
2023/03/04 12:13:21;;;;;;;10.38;1.85;;;;;;;;;;4993495;28;20448;-80
2023/03/04 12:16:11;;;;;;;12.07;1.67;;;;;;;;;;4994076;28;20038;-81
2023/03/04 12:18:57;;;;;;;12.05;1.70;;;;;;;;;;4992438;28;20044;-80
2023/03/04 12:21:44;;;;;;;8.38;1.25;;;;;;;;;;5011199;28;20460;-81
2023/03/04 12:24:30;;;;;;;10.35;1.83;;;;;;;;;;4994467;28;20030;-80
2023/03/04 12:27:14;;;;;;;9.82;1.63;;;;;;;;;;4976263;28;20038;-80
2023/03/04 12:29:52;;;;;;;11.32;2.42;;;;;;;;;;5010840;28;20039;-80
2023/03/04 12:32:37;;;;;;;8.95;1.85;;;;;;;;;;4975221;28;20061;-80
2023/03/04 12:35:24;;;;;;;14.07;2.67;;;;;;;;;;4983243;28;20053;-80
2023/03/04 12:38:02;;;;;;;4.47;1.25;;;;;;;;;;5008989;28;20030;-80
2023/03/04 12:40:39;;;;;;;7.60;1.38;;;;;;;;;;4995350;28;20550;-80
2023/03/04 12:43:26;;;;;;;14.20;1.97;;;;;;;;;;4991943;28;20768;-79
2023/03/04 12:45:57;;;;;;;9.73;2.05;;;;;;;;;;5000846;28;20265;-80
2023/03/04 12:48:56;;;;;;;9.80;1.65;;;;;;;;;;5010573;28;20042;-80
2023/03/04 12:51:31;;;;;;;8.13;1.38;;;;;;;;;;4978935;28;20127;-80
2023/03/04 12:54:24;;;;;;;10.35;2.00;;;;;;;;;;5009150;28;20103;-80
2023/03/04 12:57:13;;;;;;;11.43;1.88;;;;;;;;;;4991680;28;20038;-80
2023/03/04 12:59:44;;;;;;;7.50;1.80;;;;;;;;;;5006990;28;20072;-80
2023/03/04 13:02:09;;;;;;;7.63;1.63;;;;;;;;;;4980521;28;20082;-80
2023/03/04 13:04:42;;;;;;;8.77;1.35;;;;;;;;;;4992846;28;20777;-80
2023/03/04 13:07:33;;;;;;;10.18;1.80;;;;;;;;;;5008289;28;20556;-81
2023/03/04 13:10:10;;;;;;;8.10;1.60;;;;;;;;;;4993765;28;20041;-80
2023/03/04 13:12:56;;;;;;;7.57;1.70;;;;;;;;;;5000290;28;20034;-79
2023/03/04 13:15:21;;;;;;;10.30;1.80;;;;;;;;;;4991301;28;20035;-80
2023/03/04 13:17:53;;;;;;;5.40;1.13;;;;;;;;;;5007801;28;20084;-80
2023/03/04 13:20:40;;;;;;;8.77;1.20;;;;;;;;;;4978186;28;20533;-81
2023/03/04 13:23:08;;;;;;;10.27;1.70;;;;;;;;;;5009474;28;20791;-80
2023/03/04 13:25:41;;;;;;;7.65;1.25;;;;;;;;;;5007214;28;20269;-80
2023/03/04 13:28:09;;;;;;;8.45;1.30;;;;;;;;;;4995235;28;20421;-80
2023/03/04 13:30:34;;;;;;;9.18;1.52;;;;;;;;;;4990079;28;20045;-80
2023/03/04 13:33:15;;;;;;;8.13;1.27;;;;;;;;;;5007423;28;20356;-80
2023/03/04 13:35:46;;;;;;;7.82;1.40;;;;;;;;;;5006256;28;20041;-80
2023/03/04 13:38:36;;;;;;;7.65;1.20;;;;;;;;;;5005217;28;20068;-80
2023/03/04 13:41:04;;;;;;;7.78;1.33;;;;;;;;;;4996959;28;20985;-81
2023/03/04 13:43:52;;;;;;;11.65;1.70;;;;;;;;;;5010369;28;20112;-80
2023/03/04 13:46:17;;;;;;;8.00;1.58;;;;;;;;;;4994407;28;20050;-80
2023/03/04 13:48:48;;;;;;;8.68;1.88;;;;;;;;;;4988789;28;20142;-81
2023/03/04 13:51:40;;;;;;;9.40;1.35;;;;;;;;;;5008822;28;20049;-81
2023/03/04 13:54:27;;;;;;;8.90;1.90;;;;;;;;;;4993280;28;20042;-81
2023/03/04 13:56:59;;;;;;;;;;;;;;;;;;4996605;28;20528;-80
2023/03/04 13:59:40;;;;;;;9.32;1.40;;;;;;;;;;5007695;28;20011;-80
2023/03/04 14:02:15;;;;;;;7.90;1.48;;;;;;;;;;4990223;28;20031;-80
2023/03/04 14:04:45;;;;;;;11.20;1.63;;;;;;;;;;4993152;28;20050;-80
2023/03/04 14:07:28;;;;;;;7.78;1.65;;;;;;;;;;4999625;28;20053;-80
2023/03/04 14:09:58;;;;;;;10.52;1.70;;;;;;;;;;4982724;28;20046;-80
2023/03/04 14:12:24;;;;;;;6.78;1.42;;;;;;;;;;4997079;28;20034;-80
2023/03/04 14:14:52;;;;;;;10.38;1.38;;;;;;;;;;5008540;28;20046;-80
2023/03/04 14:17:20;;;;;;;7.60;1.50;;;;;;;;;;4982969;28;20529;-80
2023/03/04 14:19:46;;;;;;;8.10;1.42;;;;;;;;;;5008731;28;20038;-81
2023/03/04 14:22:41;;;;;;;4.93;1.20;;;;;;;;;;5007618;28;20389;-82
2023/03/04 14:25:22;;;;;;;9.88;2.05;;;;;;;;;;4983284;28;20038;-80
2023/03/04 14:27:47;;;;;;;8.48;1.50;;;;;;;;;;4992834;28;20030;-81
2023/03/04 14:30:24;;;;;;;9.18;1.58;;;;;;;;;;4977685;28;20053;-80
2023/03/04 14:32:52;;;;;;;9.70;1.90;;;;;;;;;;5004499;28;20035;-80
2023/03/04 14:35:28;;;;;;;13.55;1.70;;;;;;;;;;4995188;28;20481;-80
2023/03/04 14:37:59;;;;;;;7.55;1.40;;;;;;;;;;4997262;28;20397;-81
2023/03/04 14:40:32;;;;;;;8.30;1.45;;;;;;;;;;5010722;28;20040;-81
2023/03/04 14:43:04;;;;;;;7.93;1.70;;;;;;;;;;4994395;28;20022;-81
2023/03/04 14:45:30;;;;;;;13.55;1.73;;;;;;;;;;4994213;28;20076;-80
2023/03/04 14:48:00;;;;;;;10.30;1.90;;;;;;;;;;4987177;28;20397;-80
2023/03/04 14:50:25;;;;;;;8.02;1.30;;;;;;;;;;4981001;28;20406;-80